Time;durP1;ratioP1;P1;durP2;ratioP2;P2;SDS_P1;SDS_P2;PMS_P1;PMS_P2;Temp;Humidity;BMP_temperature;BMP_pressure;BME280_temperature;BME280_humidity;BME280_pressure;Samples;Min_cycle;Max_cycle;Signal;HPM_P1;HPM_P2
2023/10/03 00:03:43;;;;;;;23.20;15.73;;;;;;;11.77;79.40;98653.78;10328041;28;20353;-51
2023/10/03 00:08:45;;;;;;;25.98;14.98;;;;;;;11.73;79.07;98646.78;10328814;28;20104;-51
2023/10/03 00:13:45;;;;;;;22.23;14.57;;;;;;;11.70;79.58;98653.72;10323442;28;20073;-50
2023/10/03 00:18:44;;;;;;;26.17;14.65;;;;;;;11.63;79.38;98648.44;10324334;28;20076;-51
2023/10/03 00:23:43;;;;;;;23.92;13.85;;;;;;;11.54;79.79;98637.97;10322951;28;20091;-50
2023/10/03 00:28:42;;;;;;;24.25;14.82;;;;;;;11.60;79.67;98660.56;10324695;28;20056;-49
2023/10/03 00:33:41;;;;;;;24.67;15.93;;;;;;;11.53;80.26;98653.56;10324147;28;20057;-49
2023/10/03 00:38:40;;;;;;;25.15;15.73;;;;;;;11.33;80.57;98662.00;10324704;28;20173;-49
2023/10/03 00:44:01;;;;;;;23.40;15.23;;;;;;;11.19;80.51;98655.78;10324163;28;20041;-50
2023/10/03 00:49:14;;;;;;;25.55;15.13;;;;;;;10.98;81.22;98657.28;10322510;28;20488;-51
2023/10/03 00:54:13;;;;;;;30.80;15.77;;;;;;;10.94;82.25;98655.53;10331519;28;20588;-51
2023/10/03 00:59:13;;;;;;;25.70;17.05;;;;;;;10.86;82.15;98657.13;10332148;28;20562;-49
2023/10/03 01:04:19;;;;;;;30.80;17.52;;;;;;;10.82;81.76;98657.91;10331030;28;20148;-51
2023/10/03 01:09:27;;;;;;;28.90;17.80;;;;;;;10.82;81.55;98658.81;10332084;28;20794;-50
2023/10/03 01:14:27;;;;;;;27.13;17.23;;;;;;;10.79;81.64;98657.88;10331537;28;20589;-50
2023/10/03 01:19:29;;;;;;;26.35;17.58;;;;;;;10.77;81.58;98662.19;10331359;28;20124;-49
2023/10/03 01:24:29;;;;;;;25.33;16.48;;;;;;;10.73;81.61;98656.09;10331252;28;20160;-49
2023/10/03 01:29:28;;;;;;;26.73;15.75;;;;;;;10.66;81.34;98637.81;10331356;28;20061;-51
2023/10/03 01:34:27;;;;;;;24.50;15.98;;;;;;;10.64;81.21;98636.94;10330675;28;20025;-49
2023/10/03 01:39:27;;;;;;;25.15;15.07;;;;;;;10.62;81.49;98642.09;10330547;28;20112;-51
2023/10/03 01:44:28;;;;;;;26.48;18.33;;;;;;;10.60;81.16;98638.63;10330323;28;20479;-50
2023/10/03 01:49:28;;;;;;;26.58;17.00;;;;;;;10.56;81.51;98631.63;10330563;28;20065;-50
2023/10/03 01:54:27;;;;;;;32.60;20.13;;;;;;;10.51;81.51;98631.56;10329491;28;20120;-51
2023/10/03 01:59:26;;;;;;;34.15;22.83;;;;;;;10.49;81.05;98630.69;10330514;28;20041;-51
2023/10/03 02:04:28;;;;;;;31.42;20.05;;;;;;;10.36;81.21;98623.59;10329331;28;20081;-49
2023/10/03 02:09:27;;;;;;;29.23;18.92;;;;;;;10.39;81.51;98628.81;10330120;28;20552;-48
2023/10/03 02:14:28;;;;;;;28.83;18.70;;;;;;;10.39;81.39;98631.41;10329236;28;20503;-50
2023/10/03 02:19:27;;;;;;;29.05;17.83;;;;;;;10.37;81.11;98625.31;10328521;28;20164;-50
2023/10/03 02:24:26;;;;;;;28.90;17.65;;;;;;;10.35;80.84;98625.28;10328301;28;20488;-49
2023/10/03 02:29:26;;;;;;;29.17;16.92;;;;;;;10.34;81.57;98617.50;10329383;28;20029;-51
2023/10/03 02:34:26;;;;;;;27.90;16.95;;;;;;;10.29;81.28;98630.41;10327898;28;20081;-51
2023/10/03 02:39:35;;;;;;;27.92;16.25;;;;;;;10.28;81.48;98630.38;10328123;28;20143;-50
2023/10/03 02:44:34;;;;;;;27.87;17.57;;;;;;;10.26;82.19;98637.28;10326859;28;20191;-51
2023/10/03 02:49:34;;;;;;;32.17;18.27;;;;;;;10.22;83.01;98636.38;10327882;28;20029;-50
2023/10/03 02:54:33;;;;;;;32.35;19.13;;;;;;;10.17;82.74;98641.50;10327669;28;20084;-49
2023/10/03 02:59:32;;;;;;;37.40;18.45;;;;;;;10.11;82.26;98646.56;10328248;28;20428;-51
2023/10/03 03:04:33;;;;;;;29.52;17.73;;;;;;;10.09;82.43;98643.09;10326615;28;20059;-51
2023/10/03 03:09:36;;;;;;;30.10;17.63;;;;;;;9.99;82.59;98636.88;10327157;28;20512;-49
2023/10/03 03:14:35;;;;;;;25.27;16.63;;;;;;;9.89;82.69;98647.97;10326955;28;20069;-49
2023/10/03 03:19:33;;;;;;;29.42;17.20;;;;;;;9.77;82.66;98640.88;10326051;28;20128;-51
2023/10/03 03:24:35;;;;;;;30.73;19.10;;;;;;;9.68;82.94;98632.06;10325755;28;20132;-49
2023/10/03 03:29:38;;;;;;;42.35;25.83;;;;;;;9.57;82.92;98632.75;10327223;28;20057;-50
2023/10/03 03:34:37;;;;;;;41.25;24.65;;;;;;;9.49;83.12;98639.53;10325212;28;20087;-50
2023/10/03 03:39:36;;;;;;;33.45;21.20;;;;;;;9.40;83.58;98643.69;10326371;28;20492;-49
2023/10/03 03:44:35;;;;;;;26.25;17.52;;;;;;;9.30;83.57;98643.50;10326236;28;20346;-49
2023/10/03 03:49:34;;;;;;;29.58;17.33;;;;;;;9.14;83.62;98641.44;10326355;28;20156;-49
2023/10/03 03:54:33;;;;;;;27.30;18.25;;;;;;;9.13;83.64;98647.44;10325152;28;20029;-48
2023/10/03 03:59:32;;;;;;;27.27;17.80;;;;;;;9.11;83.38;98646.56;10325461;28;20052;-50
2023/10/03 04:04:32;;;;;;;28.50;18.45;;;;;;;9.07;83.58;98649.94;10324768;28;20072;-50
2023/10/03 04:09:31;;;;;;;30.40;18.92;;;;;;;9.07;83.25;98655.13;10325065;28;20124;-48
2023/10/03 04:14:30;;;;;;;36.90;20.98;;;;;;;9.07;83.41;98644.78;10327213;28;20095;-49
2023/10/03 04:19:29;;;;;;;39.67;22.40;;;;;;;9.07;83.40;98644.78;10328114;28;20045;-49
2023/10/03 04:24:29;;;;;;;32.85;19.92;;;;;;;9.05;83.72;98649.03;10326614;28;20352;-49
2023/10/03 04:29:28;;;;;;;;;;;;;;;9.03;84.07;98655.91;10327540;28;20072;-51
2023/10/03 04:34:27;;;;;;;36.63;19.40;;;;;;;9.02;83.98;98646.38;10326629;28;19913;-49
2023/10/03 04:39:26;;;;;;;32.10;19.50;;;;;;;9.03;84.29;98655.91;10326951;28;20064;-50
2023/10/03 04:44:25;;;;;;;36.40;21.50;;;;;;;9.02;84.09;98648.97;10326259;28;20499;-49
2023/10/03 04:49:25;;;;;;;37.30;21.80;;;;;;;9.10;84.04;98665.53;10327523;28;20551;-50
2023/10/03 04:54:24;;;;;;;37.28;20.20;;;;;;;9.20;83.68;98662.25;10326447;28;20064;-51
2023/10/03 04:59:23;;;;;;;41.05;24.13;;;;;;;9.31;83.21;98660.78;10326595;28;20136;-51
2023/10/03 05:04:22;;;;;;;97.75;46.85;;;;;;;9.37;83.34;98659.16;10327707;28;20104;-49
2023/10/03 05:09:21;;;;;;;59.10;33.40;;;;;;;9.48;82.92;98662.81;10326729;28;20071;-49
2023/10/03 05:14:20;;;;;;;;;;;;;;;9.54;82.32;98662.94;10323812;28;20064;-49
2023/10/03 05:19:22;;;;;;;40.15;22.23;;;;;;;9.56;81.04;98662.13;10326044;28;19964;-49
2023/10/03 05:24:21;;;;;;;40.25;23.65;;;;;;;9.67;80.64;98658.81;10326858;28;20065;-50
2023/10/03 05:29:21;;;;;;;46.47;20.50;;;;;;;9.80;80.82;98670.28;10326980;28;20504;-49
2023/10/03 05:34:22;;;;;;;32.92;17.70;;;;;;;9.90;80.39;98673.03;10325949;28;20073;-50
2023/10/03 05:39:22;;;;;;;30.63;18.50;;;;;;;9.90;80.32;98667.84;10330873;28;20083;-49
2023/10/03 05:44:21;;;;;;;;;;;;;;;9.92;79.56;98673.06;10336939;28;20069;-50
2023/10/03 05:49:19;;;;;;;32.17;18.00;;;;;;;10.11;79.24;98667.31;10339373;28;19952;-50
2023/10/03 05:54:18;;;;;;;32.85;18.85;;;;;;;10.22;79.17;98666.63;10337498;28;20029;-50
2023/10/03 05:59:20;;;;;;;31.33;17.80;;;;;;;10.28;78.51;98658.91;10337291;28;20135;-52
2023/10/03 06:04:19;;;;;;;25.77;16.02;;;;;;;10.37;79.27;98670.31;10337182;28;20096;-51
2023/10/03 06:09:18;;;;;;;24.58;15.07;;;;;;;10.32;80.89;98671.09;10334089;28;20025;-52
2023/10/03 06:14:17;;;;;;;;;;;;;;;10.25;81.73;98674.44;10332980;28;20155;-49
2023/10/03 06:19:18;;;;;;;30.15;17.77;;;;;;;10.34;82.23;98665.06;10332902;28;20331;-51
2023/10/03 06:24:17;;;;;;;33.42;20.15;;;;;;;10.25;81.73;98604.41;10332441;28;20088;-51
2023/10/03 06:29:16;;;;;;;37.47;22.40;;;;;;;10.70;82.05;98668.16;10333596;28;20045;-51
2023/10/03 06:34:16;;;;;;;34.85;21.40;;;;;;;10.96;82.08;98677.19;10330413;28;20065;-51
2023/10/03 06:39:15;;;;;;;47.95;34.13;;;;;;;10.52;82.84;98571.06;10333593;28;20077;-52
2023/10/03 06:44:14;;;;;;;39.72;27.40;;;;;;;11.37;81.94;98679.38;10330090;28;20064;-52
2023/10/03 06:49:14;;;;;;;34.78;23.25;;;;;;;11.63;81.72;98681.38;10326530;28;20116;-52
2023/10/03 06:54:13;;;;;;;32.78;22.05;;;;;;;11.68;82.17;98684.88;10332283;28;20077;-49
2023/10/03 06:59:12;;;;;;;27.98;18.50;;;;;;;11.80;82.62;98685.00;10331204;28;20140;-50
2023/10/03 07:04:11;;;;;;;;;;;;;;;11.73;83.92;98690.13;10330735;28;20081;-52
2023/10/03 07:09:11;;;;;;;25.70;17.05;;;;;;;12.08;83.30;98688.69;10329329;28;20003;-51
2023/10/03 07:14:13;;;;;;;25.42;15.65;;;;;;;12.30;82.04;98665.50;10336426;28;20080;-51
2023/10/03 07:19:14;;;;;;;22.00;14.35;;;;;;;12.48;81.33;98657.78;10335346;28;20088;-51
2023/10/03 07:24:13;;;;;;;22.27;13.30;;;;;;;12.85;80.70;98683.16;10333719;28;20072;-50
2023/10/03 07:29:12;;;;;;;21.38;13.90;;;;;;;13.10;79.70;98671.97;10338692;28;20527;-53
2023/10/03 07:34:12;;;;;;;21.67;15.00;;;;;;;13.54;78.72;98686.91;10333168;28;20026;-49
2023/10/03 07:39:13;;;;;;;20.48;13.90;;;;;;;13.95;77.43;98695.63;10334477;28;20077;-50
2023/10/03 07:44:12;;;;;;;26.25;14.80;;;;;;;14.23;75.86;98674.75;10329630;28;20092;-51
2023/10/03 07:49:11;;;;;;;;;;;;;;;14.51;74.24;98678.19;10332577;28;20037;-52
2023/10/03 07:54:11;;;;;;;23.98;13.93;;;;;;;14.75;71.94;98675.53;10332396;28;19956;-51
2023/10/03 07:59:10;;;;;;;25.02;15.38;;;;;;;14.97;71.16;98663.28;10333045;28;20077;-52
2023/10/03 08:04:12;;;;;;;;;;;;;;;15.30;69.29;98674.47;10332870;28;20128;-49
2023/10/03 08:09:11;;;;;;;23.08;12.75;;;;;;;15.66;68.55;98675.97;10333173;28;19971;-50
2023/10/03 08:14:17;;;;;;;;;;;;;;;15.86;66.92;98662.78;10330452;28;20034;-52
2023/10/03 08:19:25;;;;;;;28.27;14.38;;;;;;;16.02;65.00;98655.69;10330761;28;19949;-51
2023/10/03 08:24:25;;;;;;;24.52;12.70;;;;;;;16.44;64.58;98652.66;10330084;28;20080;-51
2023/10/03 08:29:25;;;;;;;18.52;11.05;;;;;;;16.52;62.13;98595.81;10325716;28;20071;-52
2023/10/03 08:34:28;;;;;;;27.77;13.52;;;;;;;17.01;60.40;98649.44;10327915;28;20075;-50
2023/10/03 08:39:32;;;;;;;22.60;13.32;;;;;;;17.10;58.21;98618.72;10328775;28;20080;-52
2023/10/03 08:44:36;;;;;;;27.98;15.75;;;;;;;17.34;57.28;98607.00;10328478;28;20084;-51
2023/10/03 08:49:39;;;;;;;21.58;13.85;;;;;;;17.64;55.49;98611.84;10326811;28;20075;-51
2023/10/03 08:54:39;;;;;;;21.80;12.68;;;;;;;17.99;54.86;98621.78;10326366;28;20069;-53
2023/10/03 08:59:41;;;;;;;19.25;9.38;;;;;;;18.38;53.62;98614.94;10328370;28;20068;-52
2023/10/03 09:04:40;;;;;;;13.20;8.18;;;;;;;18.55;52.06;98609.38;10327212;28;20481;-51
2023/10/03 09:09:42;;;;;;;18.25;9.18;;;;;;;18.90;51.54;98613.09;10328778;28;20468;-52
2023/10/03 09:14:41;;;;;;;14.73;7.82;;;;;;;18.90;49.14;98599.94;10335374;28;20133;-53
2023/10/03 09:19:44;;;;;;;11.95;7.18;;;;;;;19.09;48.61;98597.78;10335709;28;20232;-53
2023/10/03 09:24:43;;;;;;;16.58;8.23;;;;;;;19.43;48.52;98591.75;10335172;28;20069;-51
2023/10/03 09:29:42;;;;;;;15.32;8.60;;;;;;;19.74;48.06;98589.25;10335128;28;20031;-50
2023/10/03 09:34:42;;;;;;;15.57;8.85;;;;;;;19.96;47.52;98575.56;10339527;28;20030;-50
2023/10/03 09:39:51;;;;;;;12.70;7.35;;;;;;;19.89;45.83;98558.19;10341291;28;20077;-51
2023/10/03 09:44:51;;;;;;;15.47;8.23;;;;;;;20.35;45.60;98572.75;10333257;28;20080;-50
2023/10/03 09:49:51;;;;;;;15.65;7.35;;;;;;;20.69;45.21;98568.31;10334888;28;20320;-52
2023/10/03 09:54:54;;;;;;;13.15;6.95;;;;;;;20.70;43.44;98567.41;10313745;28;20072;-52
2023/10/03 09:59:53;;;;;;;12.77;6.95;;;;;;;20.80;42.76;98549.53;10334283;28;20079;-51
2023/10/03 10:04:52;;;;;;;13.45;7.45;;;;;;;20.82;40.96;98536.28;10334723;28;20039;-51
2023/10/03 10:10:14;;;;;;;14.48;6.68;;;;;;;21.25;41.23;98546.44;10333704;28;20705;-51
2023/10/03 10:20:13;;;;;;;11.52;6.85;;;;;;;21.47;39.18;98522.81;10333589;28;20080;-51
2023/10/03 10:25:28;;;;;;;11.90;6.90;;;;;;;21.50;39.58;98524.50;10332776;28;20097;-51
2023/10/03 10:30:27;;;;;;;15.02;7.38;;;;;;;21.46;37.75;98507.06;10333264;28;20730;-51
2023/10/03 10:35:59;;;;;;;13.07;7.22;;;;;;;21.75;37.73;98499.00;10332374;28;20665;-51
2023/10/03 10:41:29;;;;;;;13.18;7.32;;;;;;;21.67;36.63;98498.41;10333897;28;20075;-51
2023/10/03 10:46:32;;;;;;;16.20;9.25;;;;;;;21.52;36.94;98457.53;10332109;28;20079;-51
2023/10/03 10:51:36;;;;;;;13.90;7.75;;;;;;;21.80;36.09;98490.03;10332389;28;20448;-52
2023/10/03 10:56:35;;;;;;;12.65;7.53;;;;;;;22.15;35.99;98483.53;10332680;28;20072;-50
2023/10/03 11:01:38;;;;;;;14.32;6.93;;;;;;;22.47;36.03;98469.13;10332850;28;20034;-51
2023/10/03 11:06:37;;;;;;;10.73;7.00;;;;;;;22.62;35.92;98459.72;10332144;28;20064;-51
2023/10/03 11:11:38;;;;;;;13.10;7.28;;;;;;;22.80;36.63;98453.75;10332307;28;20025;-51
2023/10/03 11:16:37;;;;;;;12.93;7.28;;;;;;;22.92;36.36;98447.13;10331291;28;20081;-51
2023/10/03 11:21:37;;;;;;;11.48;7.20;;;;;;;22.89;34.77;98417.28;10331074;28;20073;-51
2023/10/03 11:26:47;;;;;;;15.65;7.03;;;;;;;23.07;34.95;98439.47;10334336;28;20076;-51
2023/10/03 11:31:46;;;;;;;15.15;7.13;;;;;;;23.22;34.80;98425.63;10334860;28;20068;-50
2023/10/03 11:36:45;;;;;;;13.32;6.95;;;;;;;23.22;34.39;98428.28;10334603;28;20049;-51
2023/10/03 11:41:44;;;;;;;14.63;7.63;;;;;;;23.25;34.46;98422.84;10334473;28;20081;-51
2023/10/03 11:46:44;;;;;;;14.52;8.07;;;;;;;23.38;33.93;98415.25;10335175;28;20041;-51
2023/10/03 11:51:44;;;;;;;12.15;7.15;;;;;;;23.21;33.72;98360.38;10333234;28;20075;-51
2023/10/03 11:56:47;;;;;;;15.57;7.78;;;;;;;23.51;33.46;98405.88;10334679;28;20080;-51
2023/10/03 12:01:56;;;;;;;12.65;7.32;;;;;;;23.63;33.59;98400.06;10333706;28;20085;-51
2023/10/03 12:06:55;;;;;;;13.90;8.48;;;;;;;23.55;33.05;98391.56;10333535;28;20073;-53
2023/10/03 12:11:55;;;;;;;17.50;8.25;;;;;;;23.79;34.11;98379.00;10335280;28;20065;-54
2023/10/03 12:16:54;;;;;;;12.75;7.85;;;;;;;24.01;32.37;98370.97;10337806;28;20128;-54
2023/10/03 12:21:54;;;;;;;13.30;7.20;;;;;;;23.99;32.59;98372.81;10336278;28;20081;-54
2023/10/03 12:26:53;;;;;;;16.55;7.30;;;;;;;24.10;32.73;98363.50;10336336;28;20519;-52
2023/10/03 12:31:53;;;;;;;14.60;8.30;;;;;;;23.95;32.76;98350.03;10336201;28;20073;-52
2023/10/03 12:36:52;;;;;;;15.63;7.53;;;;;;;24.03;32.50;98357.66;10336160;28;20068;-54
2023/10/03 12:41:51;;;;;;;13.10;7.30;;;;;;;24.10;32.92;98350.25;10336213;28;20061;-52
2023/10/03 12:46:50;;;;;;;16.73;7.45;;;;;;;24.25;32.97;98349.59;10335761;28;20512;-52
2023/10/03 12:51:50;;;;;;;12.43;7.63;;;;;;;24.18;32.91;98340.19;10336064;28;20563;-52
2023/10/03 12:56:49;;;;;;;13.73;7.25;;;;;;;23.92;33.24;98260.06;10336260;28;20038;-52
2023/10/03 13:01:48;;;;;;;11.73;6.90;;;;;;;24.57;32.01;98336.59;10336399;28;20077;-51
2023/10/03 13:06:50;;;;;;;15.15;7.32;;;;;;;24.67;32.22;98330.72;10335981;28;20080;-52
2023/10/03 13:11:49;;;;;;;12.52;6.95;;;;;;;24.60;32.12;98315.19;10334401;28;20069;-51
2023/10/03 13:16:48;;;;;;;13.30;7.38;;;;;;;24.63;32.38;98313.22;10331847;28;20054;-52
2023/10/03 13:21:47;;;;;;;16.13;7.60;;;;;;;24.44;31.90;98318.59;10346371;28;20077;-52
2023/10/03 13:26:47;;;;;;;19.30;7.97;;;;;;;24.49;31.82;98307.75;10330876;28;20120;-52
2023/10/03 13:31:46;;;;;;;9.48;6.43;;;;;;;24.35;31.82;98311.06;10331574;28;20076;-52
2023/10/03 13:36:45;;;;;;;15.25;7.43;;;;;;;24.69;31.70;98317.41;10331039;28;20456;-52
2023/10/03 13:41:45;;;;;;;14.20;7.45;;;;;;;24.64;31.52;98307.00;10331439;28;20072;-52
2023/10/03 13:46:45;;;;;;;14.73;7.40;;;;;;;24.48;31.09;98296.28;10332152;28;20539;-52
2023/10/03 13:51:46;;;;;;;11.70;6.97;;;;;;;24.55;31.24;98296.84;10331880;28;20132;-52
2023/10/03 13:56:45;;;;;;;16.20;7.47;;;;;;;24.66;31.50;98293.63;10330177;28;20079;-52
2023/10/03 14:01:44;;;;;;;13.73;7.05;;;;;;;24.80;30.82;98296.50;10338593;28;20092;-53
2023/10/03 14:06:43;;;;;;;13.02;7.50;;;;;;;24.65;31.02;98294.59;10338591;28;20017;-52
2023/10/03 14:11:42;;;;;;;16.33;8.27;;;;;;;24.72;31.27;98288.03;10338800;28;20144;-52
2023/10/03 14:16:41;;;;;;;17.40;7.10;;;;;;;24.97;31.38;98292.16;10338829;28;20588;-52
2023/10/03 14:21:42;;;;;;;14.82;7.43;;;;;;;24.95;31.18;98296.69;10337533;28;20555;-52
2023/10/03 14:26:41;;;;;;;15.20;7.10;;;;;;;24.80;30.60;98275.25;10338245;28;20069;-53
2023/10/03 14:31:40;;;;;;;14.88;7.82;;;;;;;24.75;30.56;98287.88;10337583;28;20033;-52
2023/10/03 14:36:39;;;;;;;13.25;7.22;;;;;;;24.84;31.03;98292.72;10337363;28;20056;-53
2023/10/03 14:41:39;;;;;;;14.07;7.30;;;;;;;24.62;30.94;98281.47;10337317;28;20100;-53
2023/10/03 14:46:38;;;;;;;14.10;7.75;;;;;;;24.57;31.14;98288.81;10337787;28;20081;-53
2023/10/03 14:51:37;;;;;;;12.88;7.65;;;;;;;24.45;31.64;98285.84;10338280;28;20065;-53
2023/10/03 14:56:36;;;;;;;13.15;7.57;;;;;;;24.19;31.98;98284.44;10336616;28;20053;-52
2023/10/03 15:01:36;;;;;;;13.30;7.40;;;;;;;24.05;33.01;98285.06;10336350;28;20464;-52
2023/10/03 15:06:36;;;;;;;15.63;8.25;;;;;;;23.92;33.02;98283.91;10335469;28;20084;-52
2023/10/03 15:11:35;;;;;;;15.77;8.38;;;;;;;23.65;33.72;98293.97;10336355;28;20068;-53
2023/10/03 15:16:34;;;;;;;15.07;8.43;;;;;;;23.50;33.67;98287.59;10339123;28;20060;-52
2023/10/03 15:21:33;;;;;;;14.93;8.90;;;;;;;23.33;33.94;98283.03;10337271;28;20108;-52
2023/10/03 15:26:32;;;;;;;14.73;8.02;;;;;;;23.18;34.29;98292.50;10338756;28;20480;-53
2023/10/03 15:31:35;;;;;;;15.70;9.40;;;;;;;23.13;34.62;98286.53;10338385;28;20069;-52
2023/10/03 15:36:35;;;;;;;24.80;10.05;;;;;;;23.01;35.04;98293.22;10338251;28;20076;-53
2023/10/03 15:41:38;;;;;;;21.70;12.48;;;;;;;22.66;37.19;98265.59;10338883;28;20069;-52
2023/10/03 15:46:37;;;;;;;29.80;15.48;;;;;;;22.67;38.50;98303.47;10338540;28;20033;-52
2023/10/03 15:51:38;;;;;;;34.03;16.88;;;;;;;22.39;39.02;98305.47;10337724;28;20118;-53
2023/10/03 15:56:37;;;;;;;26.92;13.32;;;;;;;22.08;39.83;98312.88;10336786;28;20468;-52
2023/10/03 16:01:37;;;;;;;23.40;12.77;;;;;;;21.74;40.26;98308.84;10334997;28;20393;-52
2023/10/03 16:06:37;;;;;;;26.70;11.75;;;;;;;21.50;41.03;98318.53;10334493;28;20095;-51
2023/10/03 16:11:36;;;;;;;21.65;11.45;;;;;;;21.22;41.95;98314.25;10334082;28;20080;-52
2023/10/03 16:16:39;;;;;;;24.80;11.55;;;;;;;20.92;42.46;98324.06;10329512;28;20037;-51
2023/10/03 16:21:39;;;;;;;19.35;9.95;;;;;;;20.60;43.13;98331.22;10331246;28;20084;-52
2023/10/03 16:26:38;;;;;;;20.50;9.80;;;;;;;20.31;43.79;98331.28;10331566;28;20060;-52
2023/10/03 16:31:37;;;;;;;18.80;10.27;;;;;;;19.96;44.20;98338.47;10331325;28;20073;-51
2023/10/03 16:36:36;;;;;;;18.27;10.02;;;;;;;19.68;44.84;98336.66;10330178;28;20106;-51
2023/10/03 16:41:35;;;;;;;18.60;10.02;;;;;;;19.41;45.17;98343.50;10330151;28;20099;-51
2023/10/03 16:46:34;;;;;;;21.35;9.98;;;;;;;19.17;45.79;98342.41;10330859;28;20072;-51
2023/10/03 16:51:33;;;;;;;19.17;11.10;;;;;;;18.91;46.61;98346.56;10330321;28;20882;-51
2023/10/03 16:56:33;;;;;;;19.67;9.48;;;;;;;18.72;47.07;98345.28;10331013;28;20037;-51
2023/10/03 17:01:32;;;;;;;20.27;9.60;;;;;;;18.51;47.63;98354.53;10330798;28;20068;-51
2023/10/03 17:06:31;;;;;;;22.48;10.65;;;;;;;18.22;48.20;98327.13;10320553;28;20104;-51
2023/10/03 17:11:30;;;;;;;19.40;9.05;;;;;;;18.23;48.33;98351.66;10321357;28;20442;-51
2023/10/03 17:16:30;;;;;;;22.73;9.48;;;;;;;17.68;49.21;98301.16;10320138;28;20064;-51
2023/10/03 17:21:30;;;;;;;20.70;8.90;;;;;;;17.83;49.85;98365.66;10322291;28;20145;-51
2023/10/03 17:26:29;;;;;;;22.60;10.65;;;;;;;17.70;50.05;98365.84;10323033;28;20099;-50
2023/10/03 17:31:28;;;;;;;17.98;9.05;;;;;;;17.61;50.62;98370.41;10322801;28;20073;-51
2023/10/03 17:36:27;;;;;;;18.45;10.35;;;;;;;17.39;51.49;98370.81;10329594;28;20029;-51
2023/10/03 17:41:26;;;;;;;;;;;;;;;17.19;52.41;98370.31;10331460;28;20035;-50
2023/10/03 17:46:25;;;;;;;20.30;10.57;;;;;;;17.05;52.60;98368.81;10330422;28;19917;-51
2023/10/03 17:51:24;;;;;;;;;;;;;;;16.89;53.28;98365.59;10330524;28;20163;-50
2023/10/03 17:56:24;;;;;;;23.83;12.13;;;;;;;16.73;53.72;98367.53;10330124;28;19960;-51
2023/10/03 18:01:24;;;;;;;24.67;12.85;;;;;;;16.63;54.23;98372.94;10329696;28;20116;-51
2023/10/03 18:06:23;;;;;;;24.65;11.82;;;;;;;16.34;54.46;98341.97;10328195;28;20076;-51
2023/10/03 18:11:23;;;;;;;22.38;11.82;;;;;;;16.38;55.45;98370.72;10330651;28;20044;-51
2023/10/03 18:16:22;;;;;;;23.65;12.00;;;;;;;16.29;55.42;98379.56;10328802;28;20140;-51
2023/10/03 18:21:21;;;;;;;;;;;;;;;16.15;55.81;98378.03;10329005;28;20045;-51
2023/10/03 18:26:20;;;;;;;26.70;13.67;;;;;;;16.03;55.82;98379.91;10329525;28;19982;-51
2023/10/03 18:31:22;;;;;;;;;;;;;;;15.92;56.19;98379.16;10329449;28;20040;-51
2023/10/03 18:36:22;;;;;;;29.33;14.07;;;;;;;15.68;57.28;98383.78;10327721;28;19956;-52
2023/10/03 18:41:22;;;;;;;29.23;13.52;;;;;;;15.66;57.18;98390.78;10328877;28;20081;-51
2023/10/03 18:46:20;;;;;;;;;;;;;;;15.56;58.67;98391.78;10327385;28;20128;-51
2023/10/03 18:51:19;;;;;;;28.30;12.83;;;;;;;15.49;58.43;98397.09;10327870;28;19970;-51
2023/10/03 18:56:19;;;;;;;;;;;;;;;15.45;58.69;98401.47;10328822;28;20034;-51
2023/10/03 19:01:20;;;;;;;26.97;13.57;;;;;;;15.38;59.84;98402.44;10328414;28;19959;-51
2023/10/03 19:06:19;;;;;;;25.65;15.05;;;;;;;15.26;60.12;98395.56;10327252;28;20160;-49
2023/10/03 19:11:19;;;;;;;;;;;;;;;15.13;60.47;98394.84;10327546;28;20037;-51
2023/10/03 19:16:20;;;;;;;30.77;15.77;;;;;;;15.01;61.13;98405.38;10327527;28;19952;-51
2023/10/03 19:21:21;;;;;;;24.65;15.70;;;;;;;14.86;61.85;98401.16;10326220;28;20511;-49
2023/10/03 19:26:20;;;;;;;30.50;15.20;;;;;;;14.74;62.47;98401.25;10326616;28;20128;-50
2023/10/03 19:31:18;;;;;;;;;;;;;;;14.73;62.93;98400.38;10327389;28;20148;-49
2023/10/03 19:36:19;;;;;;;26.98;13.75;;;;;;;14.62;63.06;98392.59;10325765;28;19921;-53
2023/10/03 19:41:18;;;;;;;26.83;15.70;;;;;;;14.48;63.35;98389.19;10325938;28;20080;-53
2023/10/03 19:46:22;;;;;;;;;;;;;;;14.41;64.08;98393.59;10326699;28;20034;-52
2023/10/03 19:51:22;;;;;;;32.38;15.02;;;;;;;14.32;64.25;98390.16;10325467;28;19979;-52
2023/10/03 19:56:25;;;;;;;26.17;15.30;;;;;;;14.11;64.23;98373.75;10324920;28;20072;-49
2023/10/03 20:01:25;;;;;;;29.27;15.73;;;;;;;14.06;64.25;98359.00;10325770;28;20064;-51
2023/10/03 20:06:24;;;;;;;29.73;16.42;;;;;;;13.85;64.57;98344.31;10325024;28;20092;-51
2023/10/03 20:11:23;;;;;;;;;;;;;;;14.06;64.80;98396.41;10326492;28;20504;-51
2023/10/03 20:16:25;;;;;;;38.70;17.75;;;;;;;14.03;65.05;98396.41;10328175;28;19983;-51
2023/10/03 20:21:25;;;;;;;28.65;15.43;;;;;;;13.87;65.76;98379.94;10327529;28;20077;-51
2023/10/03 20:26:24;;;;;;;26.95;15.68;;;;;;;13.82;65.73;98381.72;10327344;28;20080;-51
2023/10/03 20:31:23;;;;;;;;;;;;;;;13.75;66.07;98382.63;10328921;28;20077;-51
2023/10/03 20:36:22;;;;;;;26.15;15.68;;;;;;;13.66;66.63;98385.25;10327965;28;19913;-51
2023/10/03 20:41:21;;;;;;;30.90;15.63;;;;;;;13.59;67.15;98384.41;10327345;28;20029;-51
2023/10/03 20:46:20;;;;;;;28.02;16.88;;;;;;;13.49;67.50;98380.94;10327839;28;20433;-51
2023/10/03 20:51:21;;;;;;;;;;;;;;;13.42;67.81;98379.22;10327325;28;20077;-50
2023/10/03 20:56:20;;;;;;;26.85;15.73;;;;;;;13.29;68.16;98378.34;10326688;28;19952;-51
2023/10/03 21:01:19;;;;;;;27.67;15.90;;;;;;;13.15;68.44;98378.38;10327131;28;20077;-52
2023/10/03 21:06:18;;;;;;;30.15;16.67;;;;;;;12.97;68.77;98367.97;10326200;28;20132;-52
2023/10/03 21:11:17;;;;;;;27.23;16.30;;;;;;;12.93;68.92;98381.88;10332922;28;20064;-49
2023/10/03 21:16:16;;;;;;;29.45;16.60;;;;;;;12.85;69.14;98388.81;10331536;28;21181;-51
2023/10/03 21:21:15;;;;;;;27.17;17.08;;;;;;;12.78;69.60;98387.06;10330492;28;20096;-49
2023/10/03 21:26:14;;;;;;;26.85;16.27;;;;;;;12.76;69.64;98378.41;10330862;28;20041;-51
2023/10/03 21:31:14;;;;;;;30.17;17.15;;;;;;;12.74;69.91;98375.78;10330636;28;20398;-50
2023/10/03 21:36:18;;;;;;;23.95;13.77;;;;;;;12.71;70.09;98368.84;10330431;28;20091;-51
2023/10/03 21:41:17;;;;;;;23.63;14.68;;;;;;;12.64;70.76;98374.91;10330969;28;20069;-49
2023/10/03 21:46:16;;;;;;;26.92;15.82;;;;;;;12.59;71.13;98374.03;10330715;28;20684;-51
2023/10/03 21:51:14;;;;;;;;;;;;;;;12.52;71.41;98367.09;10330377;28;20069;-51
2023/10/03 21:56:13;;;;;;;38.63;20.38;;;;;;;12.49;71.50;98364.50;10329661;28;19971;-52
2023/10/03 22:01:13;;;;;;;35.55;19.60;;;;;;;12.38;72.45;98361.00;10330501;28;20030;-51
2023/10/03 22:06:12;;;;;;;30.73;18.35;;;;;;;12.32;72.72;98358.38;10329313;28;20141;-51
2023/10/03 22:11:13;;;;;;;26.48;15.85;;;;;;;12.26;72.82;98347.06;10329635;28;20081;-51
2023/10/03 22:16:12;;;;;;;23.92;14.30;;;;;;;12.17;73.34;98365.25;10329938;28;20076;-50
2023/10/03 22:21:11;;;;;;;26.85;16.52;;;;;;;12.01;73.77;98355.69;10326983;28;20049;-51
2023/10/03 22:26:10;;;;;;;24.33;14.05;;;;;;;11.91;73.39;98340.94;10324549;28;20124;-49
2023/10/03 22:31:09;;;;;;;25.33;14.98;;;;;;;11.62;73.29;98313.97;10326970;28;20051;-49
2023/10/03 22:36:09;;;;;;;23.20;14.70;;;;;;;11.86;73.51;98357.38;10327885;28;20037;-50
2023/10/03 22:41:08;;;;;;;26.45;14.75;;;;;;;11.71;73.87;98357.31;10328960;28;20763;-49
2023/10/03 22:46:09;;;;;;;20.38;13.43;;;;;;;11.65;74.61;98359.91;10328450;28;20045;-51
2023/10/03 22:51:08;;;;;;;20.05;12.88;;;;;;;11.49;75.01;98358.09;10327081;28;20792;-51
2023/10/03 22:56:07;;;;;;;26.02;14.63;;;;;;;11.44;74.33;98351.13;10327534;28;20116;-51
2023/10/03 23:01:06;;;;;;;22.75;13.23;;;;;;;11.42;75.03;98351.97;10327394;28;20117;-51
2023/10/03 23:06:05;;;;;;;21.15;13.45;;;;;;;11.31;75.63;98349.31;10327559;28;20096;-51
2023/10/03 23:11:05;;;;;;;24.67;14.75;;;;;;;11.27;75.74;98347.59;10328137;28;20040;-51